Flight Track Log - Related Links

Times and Time Zones

All times are in EDT time to prevent confusion due to time zone crossing. See the SWA2326 flight status page for this flight to view local times or setup timezone preferences in your user account.

Time Position Orientation Groundspeed Altitude Reporting Facility
EDT Latitude Longitude Course Direction KTS MPH feet Rate Location/Type
Mon 09:04:09 PM 26.0750 -80.1367 80° East 157 181 700  Level Miami Center
Mon 09:05:23 PM 26.0869 -80.0631 80° East 231 266 3,000 1,714 Climbing Miami Center
Mon 09:06:36 PM 26.1058 -79.9664 78° East 298 343 4,900 1,500 Climbing Miami Center
Mon 09:07:31 PM 26.1347 -79.8883 68° East 294 338 6,200 2,091 Climbing Miami Center
Mon 09:08:48 PM 26.1806 -79.7900 63° Northeast 312 359 9,500 2,277 Climbing Miami Center
Mon 09:09:48 PM 26.2325 -79.6964 58° Northeast 328 377 11,400 2,550 Climbing Miami Center
Mon 09:10:48 PM 26.2947 -79.6028 53° Northeast 358 412 14,600 2,600 Climbing Miami Center
Mon 09:11:48 PM 26.3650 -79.5281 44° Northeast 383 441 16,600 2,400 Climbing Miami Center
Mon 09:12:48 PM 26.4708 -79.4536 32° Northeast 402 463 19,400 2,450 Climbing Miami Center
Mon 09:13:48 PM 26.5619 -79.3906 32° Northeast 421 484 21,500 2,150 Climbing Miami Center
Mon 09:14:48 PM 26.6717 -79.3139 32° Northeast 426 490 23,700 1,950 Climbing Miami Center
Mon 09:15:48 PM 26.7753 -79.2486 29° Northeast 439 505 25,400 1,700 Climbing Miami Center
Mon 09:16:48 PM 26.8831 -79.1717 32° Northeast 450 518 27,100 1,600 Climbing Miami Center
Mon 09:17:48 PM 26.9969 -79.0994 29° Northeast 456 525 28,600 1,700 Climbing Miami Center
Mon 09:18:48 PM 27.1417 -79.0600 14° North 462 532 30,500 1,700 Climbing Miami Center
Mon 09:19:48 PM 27.2694 -79.0297 12° North 462 532 32,000 1,650 Climbing Miami Center
Mon 09:20:48 PM 27.4036 -78.9972 12° North 480 552 33,800 1,850 Climbing Miami Center
Mon 09:21:48 PM 27.5147 -78.9711 12° North 465 535 35,700 1,700 Climbing Miami Center
Mon 09:22:48 PM 27.6403 -78.9408 12° North 458 527 37,200 1,450 Climbing Miami Center
Mon 09:23:48 PM 27.7744 -78.9103 11° North 446 513 38,600 900 Climbing Miami Center
Mon 09:24:48 PM 27.8772 -78.8864 12° North 454 522 39,000 200 Climbing Miami Center
Mon 09:25:48 PM 28.0069 -78.8511 14° North 447 514 39,000  Level Miami Center
Mon 09:26:48 PM 28.1286 -78.8250 11° North 447 514 39,000  Level Miami Center
Mon 09:27:48 PM 28.2522 -78.7939 13° North 452 520 39,000  Level Miami Center
Mon 09:28:48 PM 28.3756 -78.7631 12° North 452 520 39,000  Level Miami Center
Mon 09:29:48 PM 28.5014 -78.7322 12° North 459 528 39,000  Level Miami Center
Mon 09:30:48 PM 28.6206 -78.7011 13° North 443 510 39,000  Level Miami Center
Mon 09:31:48 PM 28.7503 -78.6747 10° North 450 518 39,000  Level Miami Center
Mon 09:32:48 PM 28.8719 -78.6411 14° North 450 518 39,000  Level Miami Center
Mon 09:33:48 PM 28.9975 -78.6122 11° North 450 518 39,000  Level Miami Center
Mon 09:34:48 PM 29.1208 -78.5833 12° North 445 512 39,000  Level Miami Center
Mon 09:35:48 PM 29.2444 -78.5519 12° North 445 512 39,000  Level Miami Center
Mon 09:36:48 PM 29.3678 -78.5206 13° North 452 520 39,000  Level Miami Center
Mon 09:37:48 PM 29.4975 -78.4892 12° North 457 526 39,000  Level Miami Center
Mon 09:38:48 PM 29.6208 -78.4719 North 452 520 39,000  Level Miami Center
Mon 09:42:15 PM 30.0475 -78.3986 North 456 525 39,000  Level Jacksonville Center
Mon 09:43:15 PM 30.1719 -78.3808 North 468 539 39,000  Level Jacksonville Center
Mon 09:44:15 PM 30.3217 -78.3642 North 463 533 39,000  Level Jacksonville Center
Mon 09:45:15 PM 30.4483 -78.3461 North 471 542 39,000  Level Jacksonville Center
Mon 09:46:14 PM 30.5725 -78.3161 12° North 473 544 39,000  Level Jacksonville Center
Mon 09:47:15 PM 30.6969 -78.2906 10° North 460 529 39,000  Level Jacksonville Center
Mon 09:48:15 PM 30.8211 -78.2628 11° North 460 529 39,000  Level Jacksonville Center
Mon 09:49:15 PM 30.9369 -78.2864 350° North 440 506 39,000  Level Jacksonville Center
Mon 09:50:15 PM 31.0214 -78.3767 318° Northwest 389 448 39,000  Level Jacksonville Center
Mon 09:51:15 PM 31.1000 -78.4725 314° West 399 459 39,000  Level Jacksonville Center
Mon 09:52:15 PM 31.1764 -78.5708 312° West 410 472 39,000  Level Jacksonville Center
Mon 09:53:15 PM 31.2586 -78.6592 317° Northwest 400 460 39,000  Level Jacksonville Center
Mon 09:54:15 PM 31.3369 -78.7506 315° West 407 468 39,000  Level Jacksonville Center
Mon 09:55:15 PM 31.4131 -78.8444 314° West 407 468 39,000  Level Jacksonville Center
Mon 09:56:15 PM 31.4786 -78.9439 308° West 385 443 39,000  Level Jacksonville Center
Mon 09:57:15 PM 31.5444 -79.0411 308° West 369 425 39,000  Level Jacksonville Center
Mon 09:58:15 PM 31.6139 -79.1333 311° West 395 455 39,000  Level Jacksonville Center
Mon 09:59:15 PM 31.6833 -79.2258 311° West 374 430 39,000  Level Jacksonville Center
Mon 10:00:15 PM 31.7531 -79.3206 311° West 391 450 39,000  Level Jacksonville Center
Mon 10:01:15 PM 31.8222 -79.4133 311° West 367 422 39,000  Level Jacksonville Center
Mon 10:02:15 PM 31.9181 -79.4783 330° Northwest 389 448 39,000  Level Jacksonville Center
Mon 10:03:15 PM 32.0439 -79.4247 20° North 389 448 39,000  Level Jacksonville Center
Mon 10:04:15 PM 32.1653 -79.3561 26° Northeast 426 490 39,000  Level Jacksonville Center
Mon 10:05:15 PM 32.2864 -79.2875 26° Northeast 449 517 39,000  Level Jacksonville Center
Mon 10:06:15 PM 32.4078 -79.2214 25° Northeast 471 542 39,000  Level Jacksonville Center
Mon 10:07:15 PM 32.5206 -79.1600 25° Northeast 485 558 39,000  Level Jacksonville Center
Mon 10:08:15 PM 32.6439 -79.0933 24° Northeast 485 558 39,000  Level Jacksonville Center
Mon 10:09:15 PM 32.7650 -79.0267 25° Northeast 485 558 39,000  Level Jacksonville Center
Mon 10:10:15 PM 32.8861 -78.9594 25° Northeast 480 552 39,000  Level Jacksonville Center
Mon 10:11:15 PM 33.0133 -78.8919 24° Northeast 480 552 39,000  Level Jacksonville Center
Mon 10:12:15 PM 33.1364 -78.8244 25° Northeast 480 552 39,000  Level Jacksonville Center
Mon 10:14:20 PM 33.3914 -78.6828 25° Northeast 481 554 39,000  Level Washington Center
Mon 10:15:19 PM 33.5161 -78.6153 24° Northeast 486 559 39,000  Level Washington Center
Mon 10:16:21 PM 33.6389 -78.5472 25° Northeast 486 559 39,000  Level Washington Center
Mon 10:17:21 PM 33.7636 -78.4794 24° Northeast 481 554 39,000  Level Washington Center
Mon 10:18:19 PM 33.8906 -78.4086 25° Northeast 488 562 39,000 -151 Level Washington Center
Mon 10:19:20 PM 34.0131 -78.3403 25° Northeast 488 562 38,700 -645 Descending Washington Center
Mon 10:20:20 PM 34.1419 -78.2717 24° Northeast 488 562 37,700 -958 Descending Washington Center
Mon 10:21:19 PM 34.2708 -78.1981 25° Northeast 493 567 36,800 -950 Descending Washington Center
Mon 10:22:20 PM 34.3997 -78.1242 25° Northeast 493 567 35,800 -934 Descending Washington Center
Mon 10:23:21 PM 34.5283 -78.0500 25° Northeast 498 573 34,900 -958 Descending Washington Center
Mon 10:24:19 PM 34.6550 -77.9756 26° Northeast 498 573 33,900 -1,059 Descending Washington Center
Mon 10:25:20 PM 34.7817 -77.9033 25° Northeast 498 573 32,800 -1,574 Descending Washington Center
Mon 10:26:21 PM 34.9231 -77.8161 27° Northeast 498 573 30,700 -1,900 Descending Washington Center
Mon 10:27:20 PM 35.0539 -77.7411 25° Northeast 509 586 29,000 -864 Descending Washington Center
Mon 10:28:19 PM 35.1825 -77.6658 26° Northeast 509 586 29,000  Level Washington Center
Mon 10:29:19 PM 35.3111 -77.5928 25° Northeast 509 586 29,000  Level Washington Center
Mon 10:30:20 PM 35.4294 -77.5039 31° Northeast 509 586 29,000  Level Washington Center
Mon 10:31:21 PM 35.5456 -77.4069 34° Northeast 504 580 29,000  Level Washington Center
Mon 10:32:21 PM 35.6578 -77.3047 36° Northeast 504 580 29,000  Level Washington Center
Mon 10:33:21 PM 35.7739 -77.2050 35° Northeast 499 574 29,000  Level Washington Center
Mon 10:34:20 PM 35.8731 -77.1147 36° Northeast 499 574 29,000  Level Washington Center
Mon 10:35:21 PM 35.9850 -77.0117 37° Northeast 493 567 29,000  Level Washington Center
Mon 10:36:22 PM 36.1008 -76.9158 34° Northeast 498 573 29,000 -51 Level Washington Center
Mon 10:37:19 PM 36.2125 -76.8122 37° Northeast 498 573 28,900  Descending Washington Center
Mon 10:38:20 PM 36.3342 -76.7292 29° Northeast 498 573 29,000 50 Climbing Washington Center
Mon 10:39:20 PM 36.4561 -76.6403 30° Northeast 498 573 29,000  Level Washington Center
Mon 10:40:19 PM 36.5800 -76.5542 29° Northeast 498 573 29,000  Level Washington Center
Mon 10:41:21 PM 36.7142 -76.4522 31° Northeast 503 579 29,000  Level Washington Center
Mon 10:42:22 PM 36.8378 -76.3653 29° Northeast 509 586 29,000  Level Washington Center
Mon 10:43:20 PM 36.9594 -76.2756 31° Northeast 509 586 29,000  Level Washington Center
Mon 10:44:20 PM 37.0831 -76.1856 30° Northeast 509 586 29,000  Level Washington Center
Mon 10:45:22 PM 37.2064 -76.1003 29° Northeast 503 579 29,000  Level Washington Center
Mon 10:46:22 PM 37.3278 -76.0150 29° Northeast 503 579 29,000  Level Washington Center
Mon 10:47:19 PM 37.4469 -75.9242 31° Northeast 503 579 29,000  Level Washington Center
Mon 10:48:20 PM 37.5681 -75.8356 30° Northeast 503 579 29,000  Level Washington Center
Mon 10:49:21 PM 37.6892 -75.7439 31° Northeast 503 579 29,000  Level Washington Center
Mon 10:50:22 PM 37.8103 -75.6550 30° Northeast 503 579 29,000 -101 Level Washington Center
Mon 10:51:20 PM 37.9311 -75.5681 30° Northeast 503 579 28,800 -1,169 Descending Washington Center
Mon 10:52:20 PM 38.0500 -75.4758 31° Northeast 503 579 26,700 -2,218 Descending Washington Center
Mon 10:53:19 PM 38.1689 -75.4017 26° Northeast 492 566 24,400 -2,250 Descending Washington Center
Mon 10:54:20 PM 38.2853 -75.3247 27° Northeast 471 542 22,200 -2,066 Descending Washington Center
Mon 10:55:21 PM 38.3875 -75.2553 28° Northeast 460 529 20,200 -2,066 Descending Washington Center
Mon 10:56:22 PM 38.4978 -75.1858 26° Northeast 448 516 18,000 -2,200 Descending Washington Center
Mon 10:57:21 PM 38.6039 -75.1189 26° Northeast 431 496 15,800 -1,563 Descending Washington Center
Mon 10:58:21 PM 38.7036 -75.0517 28° Northeast 419 482 14,900 -458 Descending Washington Center
Mon 10:59:19 PM 38.7972 -74.9950 25° Northeast 390 449 14,900  Level Washington Center
Mon 11:00:20 PM 38.8864 -74.9383 26° Northeast 361 415 14,900  Level Washington Center
Mon 11:01:21 PM 38.9736 -74.8814 27° Northeast 349 402 14,900 -303 Level Washington Center
Mon 11:02:19 PM 39.0608 -74.8244 27° Northeast 349 402 14,300 -1,374 Descending Washington Center
Mon 11:04:20 PM 39.2500 -74.8667 350° North 328 377 10,800 -1,611 Descending Philadelphia TRACON
Mon 11:05:14 PM 39.3333 -74.8833 351° North 318 366 9,600 -947 Descending Philadelphia TRACON
Mon 11:06:14 PM 39.4167 -74.8833 360° North 323 372 9,000 -300 Descending Philadelphia TRACON
Mon 11:07:14 PM 39.5167 -74.8833 360° North 321 369 9,000  Level Philadelphia TRACON
Mon 11:08:21 PM 39.5500 -74.9667 297° West 226 260 9,000 -571 Level Philadelphia TRACON
Mon 11:09:20 PM 39.5333 -75.0500 255° West 235 270 7,800 -1,008 Descending Philadelphia TRACON
Mon 11:10:20 PM 39.5333 -75.1333 270° West 227 261 7,000 -850 Descending Philadelphia TRACON
Mon 11:11:27 PM 39.5333 -75.2167 270° West 209 241 6,000 -496 Descending Philadelphia TRACON
Mon 11:12:21 PM 39.5333 -75.2833 270° West 203 234 6,000 -474 Level Philadelphia TRACON
Mon 11:13:21 PM 39.5833 -75.3333 322° Northwest 284 327 5,100 -1,000 Descending Philadelphia TRACON
Mon 11:14:21 PM 39.6500 -75.3500 349° North 260 299 4,000 -550 Descending Philadelphia TRACON
Mon 11:15:21 PM 39.7167 -75.3833 339° North 255 293 4,000  Level Philadelphia TRACON
Mon 11:16:27 PM 39.7167 -75.4667 270° West 207 238 4,000  Level Philadelphia TRACON
Mon 11:17:27 PM 39.6833 -75.5167 229° Southwest 178 205 4,000  Level Philadelphia TRACON
Mon 11:18:27 PM 39.6500 -75.5667 229° Southwest 178 205 4,000  Level Philadelphia TRACON
Mon 11:19:27 PM 39.6333 -75.6167 247° West 174 200 4,000  Level Philadelphia TRACON
Mon 11:20:27 PM 39.6500 -75.6667 293° West 222 255 4,000  Level Philadelphia TRACON
Mon 11:21:21 PM 39.7000 -75.7167 322° Northwest 217 250 4,000  Level Philadelphia TRACON
Mon 11:22:21 PM 39.7333 -75.7667 311° West 220 253 4,000  Level Philadelphia TRACON
Mon 11:23:21 PM 39.8000 -75.7333 21° North 272 313 4,000  Level Philadelphia TRACON
Mon 11:24:21 PM 39.7833 -75.6500 105° East 259 298 4,000  Level Philadelphia TRACON
Mon 11:25:15 PM 39.8000 -75.5667 75° East 265 305 4,000 -421 Level Philadelphia TRACON
Mon 11:26:15 PM 39.8167 -75.4833 75° East 220 253 3,200 -850 Descending Philadelphia TRACON
Mon 11:27:15 PM 39.8333 -75.4167 72° East 171 197 2,300 -900 Descending Philadelphia TRACON
Mon 11:28:15 PM 39.8500 -75.3667 67° East 156 180 1,400 -800 Descending Philadelphia TRACON
Mon 11:29:15 PM 39.8500 -75.3167 90° East 140 161 700 -700 Descending Philadelphia TRACON

Login

Don't have an account? Register now (free) for customized features, flight alerts, and more!